sensor_id;sensor_type;location;lat;lon;timestamp;temperature;humidity
16728;DHT22;8482;54.396;18.590;2022-10-19T00:01:20;15.00;99.90
16728;DHT22;8482;54.396;18.590;2022-10-19T00:03:52;15.00;99.90
16728;DHT22;8482;54.396;18.590;2022-10-19T00:09:00;15.00;99.90
16728;DHT22;8482;54.396;18.590;2022-10-19T00:11:27;15.00;99.90
16728;DHT22;8482;54.396;18.590;2022-10-19T00:13:55;14.90;99.90
16728;DHT22;8482;54.396;18.590;2022-10-19T00:16:23;14.90;99.90
16728;DHT22;8482;54.396;18.590;2022-10-19T00:18:50;14.90;99.90
16728;DHT22;8482;54.396;18.590;2022-10-19T00:21:18;14.90;99.90
16728;DHT22;8482;54.396;18.590;2022-10-19T00:23:45;14.90;99.90
16728;DHT22;8482;54.396;18.590;2022-10-19T00:26:11;14.90;99.90
16728;DHT22;8482;54.396;18.590;2022-10-19T00:28:38;14.90;99.90
16728;DHT22;8482;54.396;18.590;2022-10-19T00:31:15;14.90;99.90
16728;DHT22;8482;54.396;18.590;2022-10-19T00:33:43;14.90;99.90
16728;DHT22;8482;54.396;18.590;2022-10-19T00:36:23;14.90;99.90
16728;DHT22;8482;54.396;18.590;2022-10-19T00:38:54;14.90;99.90
16728;DHT22;8482;54.396;18.590;2022-10-19T00:41:22;14.90;99.90
16728;DHT22;8482;54.396;18.590;2022-10-19T00:46:20;14.80;99.90
16728;DHT22;8482;54.396;18.590;2022-10-19T00:48:46;14.80;99.90
16728;DHT22;8482;54.396;18.590;2022-10-19T00:51:13;14.80;99.90
16728;DHT22;8482;54.396;18.590;2022-10-19T00:53:40;14.80;99.90
16728;DHT22;8482;54.396;18.590;2022-10-19T00:56:10;14.80;99.90
16728;DHT22;8482;54.396;18.590;2022-10-19T00:58:40;14.80;99.90
16728;DHT22;8482;54.396;18.590;2022-10-19T01:01:08;14.80;99.90
16728;DHT22;8482;54.396;18.590;2022-10-19T01:03:38;14.80;99.90
16728;DHT22;8482;54.396;18.590;2022-10-19T01:06:05;14.80;99.90
16728;DHT22;8482;54.396;18.590;2022-10-19T01:08:32;14.80;99.90
16728;DHT22;8482;54.396;18.590;2022-10-19T01:14:27;14.70;99.90
16728;DHT22;8482;54.396;18.590;2022-10-19T01:41:22;14.60;99.90
16728;DHT22;8482;54.396;18.590;2022-10-19T01:44:03;14.60;99.90
16728;DHT22;8482;54.396;18.590;2022-10-19T01:46:43;14.50;99.90
16728;DHT22;8482;54.396;18.590;2022-10-19T01:49:31;14.60;99.90
16728;DHT22;8482;54.396;18.590;2022-10-19T01:52:06;14.50;99.90
16728;DHT22;8482;54.396;18.590;2022-10-19T01:54:41;14.50;99.90
16728;DHT22;8482;54.396;18.590;2022-10-19T01:57:11;14.50;99.90
16728;DHT22;8482;54.396;18.590;2022-10-19T01:59:43;14.50;99.90
16728;DHT22;8482;54.396;18.590;2022-10-19T02:02:12;14.50;99.90
16728;DHT22;8482;54.396;18.590;2022-10-19T02:04:42;14.40;99.90
16728;DHT22;8482;54.396;18.590;2022-10-19T02:07:10;14.40;99.90
16728;DHT22;8482;54.396;18.590;2022-10-19T02:09:36;14.40;99.90
16728;DHT22;8482;54.396;18.590;2022-10-19T02:12:05;14.40;99.90
16728;DHT22;8482;54.396;18.590;2022-10-19T02:14:46;14.40;99.90
16728;DHT22;8482;54.396;18.590;2022-10-19T02:17:19;14.40;99.90
16728;DHT22;8482;54.396;18.590;2022-10-19T02:19:50;14.40;99.90
16728;DHT22;8482;54.396;18.590;2022-10-19T02:22:18;14.40;99.90
16728;DHT22;8482;54.396;18.590;2022-10-19T02:24:44;14.40;99.90
16728;DHT22;8482;54.396;18.590;2022-10-19T02:27:10;14.40;99.90
16728;DHT22;8482;54.396;18.590;2022-10-19T02:29:37;14.30;99.90
16728;DHT22;8482;54.396;18.590;2022-10-19T02:32:04;14.30;99.90
16728;DHT22;8482;54.396;18.590;2022-10-19T02:34:31;14.30;99.90
16728;DHT22;8482;54.396;18.590;2022-10-19T02:36:59;14.30;99.90
16728;DHT22;8482;54.396;18.590;2022-10-19T02:39:24;14.30;99.90
16728;DHT22;8482;54.396;18.590;2022-10-19T02:41:52;14.30;99.90
16728;DHT22;8482;54.396;18.590;2022-10-19T02:47:21;14.20;99.90
16728;DHT22;8482;54.396;18.590;2022-10-19T02:49:52;14.20;99.90
16728;DHT22;8482;54.396;18.590;2022-10-19T02:52:18;14.10;99.90
16728;DHT22;8482;54.396;18.590;2022-10-19T02:54:44;14.10;99.90
16728;DHT22;8482;54.396;18.590;2022-10-19T02:57:22;14.10;99.90
16728;DHT22;8482;54.396;18.590;2022-10-19T02:59:50;14.10;99.90
16728;DHT22;8482;54.396;18.590;2022-10-19T03:02:17;14.00;99.90
16728;DHT22;8482;54.396;18.590;2022-10-19T03:04:45;14.10;99.90
16728;DHT22;8482;54.396;18.590;2022-10-19T03:07:13;14.10;99.90
16728;DHT22;8482;54.396;18.590;2022-10-19T03:09:42;14.10;99.90
16728;DHT22;8482;54.396;18.590;2022-10-19T03:12:09;14.00;99.90
16728;DHT22;8482;54.396;18.590;2022-10-19T03:14:36;14.00;99.90
16728;DHT22;8482;54.396;18.590;2022-10-19T03:17:02;14.00;99.90
16728;DHT22;8482;54.396;18.590;2022-10-19T03:19:28;14.00;99.90
16728;DHT22;8482;54.396;18.590;2022-10-19T03:21:55;14.00;99.90
16728;DHT22;8482;54.396;18.590;2022-10-19T03:24:21;14.00;99.90
16728;DHT22;8482;54.396;18.590;2022-10-19T03:26:47;14.00;99.90
16728;DHT22;8482;54.396;18.590;2022-10-19T03:29:13;14.00;99.90
16728;DHT22;8482;54.396;18.590;2022-10-19T03:31:39;14.00;99.90
16728;DHT22;8482;54.396;18.590;2022-10-19T03:34:04;14.00;99.90
16728;DHT22;8482;54.396;18.590;2022-10-19T03:36:33;14.00;99.90
16728;DHT22;8482;54.396;18.590;2022-10-19T03:39:06;14.00;99.90
16728;DHT22;8482;54.396;18.590;2022-10-19T03:41:35;14.00;99.90
16728;DHT22;8482;54.396;18.590;2022-10-19T03:44:03;14.00;99.90
16728;DHT22;8482;54.396;18.590;2022-10-19T03:46:29;14.00;99.90
16728;DHT22;8482;54.396;18.590;2022-10-19T03:48:56;14.00;99.90
16728;DHT22;8482;54.396;18.590;2022-10-19T03:51:24;13.90;99.90
16728;DHT22;8482;54.396;18.590;2022-10-19T03:54:04;13.90;99.90
16728;DHT22;8482;54.396;18.590;2022-10-19T03:56:33;13.90;99.90
16728;DHT22;8482;54.396;18.590;2022-10-19T03:59:01;13.90;99.90
16728;DHT22;8482;54.396;18.590;2022-10-19T04:01:32;13.90;99.90
16728;DHT22;8482;54.396;18.590;2022-10-19T04:04:00;13.80;99.90
16728;DHT22;8482;54.396;18.590;2022-10-19T04:06:31;13.90;99.90
16728;DHT22;8482;54.396;18.590;2022-10-19T04:09:00;13.80;99.90
16728;DHT22;8482;54.396;18.590;2022-10-19T04:11:29;13.80;99.90
16728;DHT22;8482;54.396;18.590;2022-10-19T04:13:57;13.80;99.90
16728;DHT22;8482;54.396;18.590;2022-10-19T04:16:25;13.80;99.90
16728;DHT22;8482;54.396;18.590;2022-10-19T04:18:53;13.80;99.90
16728;DHT22;8482;54.396;18.590;2022-10-19T04:24:00;13.80;99.90
16728;DHT22;8482;54.396;18.590;2022-10-19T04:26:27;13.80;99.90
16728;DHT22;8482;54.396;18.590;2022-10-19T04:28:56;13.80;99.90
16728;DHT22;8482;54.396;18.590;2022-10-19T04:31:23;13.70;99.90
16728;DHT22;8482;54.396;18.590;2022-10-19T04:33:49;13.70;99.90
16728;DHT22;8482;54.396;18.590;2022-10-19T04:36:15;13.70;99.90
16728;DHT22;8482;54.396;18.590;2022-10-19T04:38:41;13.70;99.90
16728;DHT22;8482;54.396;18.590;2022-10-19T04:41:09;13.60;99.90
16728;DHT22;8482;54.396;18.590;2022-10-19T04:43:36;13.60;99.90
16728;DHT22;8482;54.396;18.590;2022-10-19T04:46:04;13.60;99.90
16728;DHT22;8482;54.396;18.590;2022-10-19T04:48:33;13.60;99.90
16728;DHT22;8482;54.396;18.590;2022-10-19T04:51:00;13.50;99.90
16728;DHT22;8482;54.396;18.590;2022-10-19T04:53:26;13.50;99.90
16728;DHT22;8482;54.396;18.590;2022-10-19T04:55:52;13.50;99.90
16728;DHT22;8482;54.396;18.590;2022-10-19T04:58:18;13.50;99.90
16728;DHT22;8482;54.396;18.590;2022-10-19T05:00:44;13.50;99.90
16728;DHT22;8482;54.396;18.590;2022-10-19T05:03:10;13.40;99.90
16728;DHT22;8482;54.396;18.590;2022-10-19T05:05:36;13.40;99.90
16728;DHT22;8482;54.396;18.590;2022-10-19T05:08:02;13.30;99.90
16728;DHT22;8482;54.396;18.590;2022-10-19T05:10:28;13.40;99.90
16728;DHT22;8482;54.396;18.590;2022-10-19T05:12:54;13.40;99.90
16728;DHT22;8482;54.396;18.590;2022-10-19T05:15:20;13.30;99.90
16728;DHT22;8482;54.396;18.590;2022-10-19T05:17:46;13.30;99.90
16728;DHT22;8482;54.396;18.590;2022-10-19T05:20:12;13.30;99.90
16728;DHT22;8482;54.396;18.590;2022-10-19T05:22:38;13.30;99.90
16728;DHT22;8482;54.396;18.590;2022-10-19T05:25:05;13.30;99.90
16728;DHT22;8482;54.396;18.590;2022-10-19T05:27:32;13.30;99.90
16728;DHT22;8482;54.396;18.590;2022-10-19T05:29:58;13.20;99.90
16728;DHT22;8482;54.396;18.590;2022-10-19T05:32:24;13.20;99.90
16728;DHT22;8482;54.396;18.590;2022-10-19T05:34:51;13.20;99.90
16728;DHT22;8482;54.396;18.590;2022-10-19T05:37:17;13.20;99.90
16728;DHT22;8482;54.396;18.590;2022-10-19T05:39:43;13.20;99.90
16728;DHT22;8482;54.396;18.590;2022-10-19T05:42:09;13.20;99.90
16728;DHT22;8482;54.396;18.590;2022-10-19T05:44:35;13.20;99.90
16728;DHT22;8482;54.396;18.590;2022-10-19T05:47:02;13.20;99.90
16728;DHT22;8482;54.396;18.590;2022-10-19T05:49:28;13.20;99.90
16728;DHT22;8482;54.396;18.590;2022-10-19T05:51:54;13.10;99.90
16728;DHT22;8482;54.396;18.590;2022-10-19T05:54:20;13.10;99.90
16728;DHT22;8482;54.396;18.590;2022-10-19T05:56:46;13.10;99.90
16728;DHT22;8482;54.396;18.590;2022-10-19T05:59:16;13.10;99.90
16728;DHT22;8482;54.396;18.590;2022-10-19T06:01:45;13.10;99.90
16728;DHT22;8482;54.396;18.590;2022-10-19T06:04:11;13.10;99.90
16728;DHT22;8482;54.396;18.590;2022-10-19T06:06:40;13.10;99.90
16728;DHT22;8482;54.396;18.590;2022-10-19T06:09:08;13.10;99.90
16728;DHT22;8482;54.396;18.590;2022-10-19T06:11:37;13.10;99.90
16728;DHT22;8482;54.396;18.590;2022-10-19T06:14:07;13.00;99.90
16728;DHT22;8482;54.396;18.590;2022-10-19T06:16:35;13.00;99.90
16728;DHT22;8482;54.396;18.590;2022-10-19T06:19:01;13.00;99.90
16728;DHT22;8482;54.396;18.590;2022-10-19T06:21:29;13.00;99.90
16728;DHT22;8482;54.396;18.590;2022-10-19T06:23:58;13.00;99.90
16728;DHT22;8482;54.396;18.590;2022-10-19T06:26:27;13.00;99.90
16728;DHT22;8482;54.396;18.590;2022-10-19T06:28:55;12.90;99.90
16728;DHT22;8482;54.396;18.590;2022-10-19T06:31:25;12.90;99.90
16728;DHT22;8482;54.396;18.590;2022-10-19T06:33:52;12.90;99.90
16728;DHT22;8482;54.396;18.590;2022-10-19T06:36:20;12.90;99.90
16728;DHT22;8482;54.396;18.590;2022-10-19T06:38:48;12.80;99.90
16728;DHT22;8482;54.396;18.590;2022-10-19T06:41:15;12.80;99.90
16728;DHT22;8482;54.396;18.590;2022-10-19T06:43:41;12.80;99.90
16728;DHT22;8482;54.396;18.590;2022-10-19T06:46:10;12.80;99.90
16728;DHT22;8482;54.396;18.590;2022-10-19T06:48:40;12.70;99.90
16728;DHT22;8482;54.396;18.590;2022-10-19T06:51:06;12.70;99.90
16728;DHT22;8482;54.396;18.590;2022-10-19T06:53:33;12.70;99.90
16728;DHT22;8482;54.396;18.590;2022-10-19T06:56:02;12.70;99.90
16728;DHT22;8482;54.396;18.590;2022-10-19T06:58:34;12.70;99.90
16728;DHT22;8482;54.396;18.590;2022-10-19T07:01:01;12.70;99.90
16728;DHT22;8482;54.396;18.590;2022-10-19T07:03:28;12.80;99.90
16728;DHT22;8482;54.396;18.590;2022-10-19T07:05:57;12.80;99.90
16728;DHT22;8482;54.396;18.590;2022-10-19T07:08:25;12.80;99.90
16728;DHT22;8482;54.396;18.590;2022-10-19T07:11:00;12.80;99.90
16728;DHT22;8482;54.396;18.590;2022-10-19T07:13:28;12.80;99.90
16728;DHT22;8482;54.396;18.590;2022-10-19T07:15:58;12.80;99.90
16728;DHT22;8482;54.396;18.590;2022-10-19T07:18:27;12.80;99.90
16728;DHT22;8482;54.396;18.590;2022-10-19T07:20:58;12.80;99.90
16728;DHT22;8482;54.396;18.590;2022-10-19T07:23:27;12.70;99.90
16728;DHT22;8482;54.396;18.590;2022-10-19T07:25:54;12.70;99.90
16728;DHT22;8482;54.396;18.590;2022-10-19T07:28:26;12.70;99.90
16728;DHT22;8482;54.396;18.590;2022-10-19T07:30:54;12.70;99.90
16728;DHT22;8482;54.396;18.590;2022-10-19T07:33:20;12.70;99.90
16728;DHT22;8482;54.396;18.590;2022-10-19T07:35:46;12.70;99.90
16728;DHT22;8482;54.396;18.590;2022-10-19T07:38:12;12.70;99.90
16728;DHT22;8482;54.396;18.590;2022-10-19T07:40:38;12.70;99.90
16728;DHT22;8482;54.396;18.590;2022-10-19T07:43:04;12.70;99.90
16728;DHT22;8482;54.396;18.590;2022-10-19T07:45:31;12.70;99.90
16728;DHT22;8482;54.396;18.590;2022-10-19T07:47:58;12.70;99.90
16728;DHT22;8482;54.396;18.590;2022-10-19T07:50:24;12.70;99.90
16728;DHT22;8482;54.396;18.590;2022-10-19T07:52:52;12.70;99.90
16728;DHT22;8482;54.396;18.590;2022-10-19T07:55:18;12.70;99.90
16728;DHT22;8482;54.396;18.590;2022-10-19T07:57:47;12.70;99.90
16728;DHT22;8482;54.396;18.590;2022-10-19T08:00:15;12.80;99.90
16728;DHT22;8482;54.396;18.590;2022-10-19T08:02:42;12.80;99.90
16728;DHT22;8482;54.396;18.590;2022-10-19T08:05:09;12.90;99.90
16728;DHT22;8482;54.396;18.590;2022-10-19T08:07:35;12.90;99.90
16728;DHT22;8482;54.396;18.590;2022-10-19T08:10:01;12.90;99.90
16728;DHT22;8482;54.396;18.590;2022-10-19T08:12:27;12.90;99.90
16728;DHT22;8482;54.396;18.590;2022-10-19T08:14:53;12.90;99.90
16728;DHT22;8482;54.396;18.590;2022-10-19T08:17:19;12.90;99.90
16728;DHT22;8482;54.396;18.590;2022-10-19T08:19:45;12.90;99.90
16728;DHT22;8482;54.396;18.590;2022-10-19T08:22:11;12.90;99.90
16728;DHT22;8482;54.396;18.590;2022-10-19T08:24:37;12.90;99.90
16728;DHT22;8482;54.396;18.590;2022-10-19T08:27:03;12.90;99.90
16728;DHT22;8482;54.396;18.590;2022-10-19T08:29:29;12.80;99.90
16728;DHT22;8482;54.396;18.590;2022-10-19T08:31:55;12.80;99.90
16728;DHT22;8482;54.396;18.590;2022-10-19T08:34:21;12.80;99.90
16728;DHT22;8482;54.396;18.590;2022-10-19T08:36:47;12.80;99.90
16728;DHT22;8482;54.396;18.590;2022-10-19T08:39:13;12.80;99.90
16728;DHT22;8482;54.396;18.590;2022-10-19T08:49:58;12.90;99.90
16728;DHT22;8482;54.396;18.590;2022-10-19T08:52:31;12.90;99.90
16728;DHT22;8482;54.396;18.590;2022-10-19T08:55:02;13.00;99.90
16728;DHT22;8482;54.396;18.590;2022-10-19T09:03:22;13.10;99.90
16728;DHT22;8482;54.396;18.590;2022-10-19T09:06:01;13.10;99.90
16728;DHT22;8482;54.396;18.590;2022-10-19T09:08:52;13.20;99.90
16728;DHT22;8482;54.396;18.590;2022-10-19T09:11:23;13.20;99.90
16728;DHT22;8482;54.396;18.590;2022-10-19T09:14:12;13.20;99.90
16728;DHT22;8482;54.396;18.590;2022-10-19T09:16:45;13.20;99.90
16728;DHT22;8482;54.396;18.590;2022-10-19T09:19:21;13.10;99.90
16728;DHT22;8482;54.396;18.590;2022-10-19T09:21:59;13.20;99.90
16728;DHT22;8482;54.396;18.590;2022-10-19T09:27:39;13.30;99.90
16728;DHT22;8482;54.396;18.590;2022-10-19T09:30:17;13.30;99.90
16728;DHT22;8482;54.396;18.590;2022-10-19T09:32:47;13.40;99.90
16728;DHT22;8482;54.396;18.590;2022-10-19T09:35:27;13.40;99.90
16728;DHT22;8482;54.396;18.590;2022-10-19T09:37:57;13.40;99.90
16728;DHT22;8482;54.396;18.590;2022-10-19T09:40:26;13.50;99.90
16728;DHT22;8482;54.396;18.590;2022-10-19T09:42:54;13.60;99.90
16728;DHT22;8482;54.396;18.590;2022-10-19T09:45:42;13.60;99.90
16728;DHT22;8482;54.396;18.590;2022-10-19T09:48:37;13.60;99.90
16728;DHT22;8482;54.396;18.590;2022-10-19T09:51:12;13.70;99.90
16728;DHT22;8482;54.396;18.590;2022-10-19T09:53:53;13.70;99.90
16728;DHT22;8482;54.396;18.590;2022-10-19T09:56:25;13.80;99.90
16728;DHT22;8482;54.396;18.590;2022-10-19T09:58:56;13.90;99.90
16728;DHT22;8482;54.396;18.590;2022-10-19T10:01:39;13.90;99.90
16728;DHT22;8482;54.396;18.590;2022-10-19T10:04:13;13.90;99.90
16728;DHT22;8482;54.396;18.590;2022-10-19T10:06:42;13.90;99.90
16728;DHT22;8482;54.396;18.590;2022-10-19T10:09:27;13.90;99.90
16728;DHT22;8482;54.396;18.590;2022-10-19T10:11:57;13.90;99.90
16728;DHT22;8482;54.396;18.590;2022-10-19T10:14:37;13.90;99.90
16728;DHT22;8482;54.396;18.590;2022-10-19T10:17:27;13.80;99.90
16728;DHT22;8482;54.396;18.590;2022-10-19T10:22:27;13.80;99.90
16728;DHT22;8482;54.396;18.590;2022-10-19T10:24:57;13.80;99.90
16728;DHT22;8482;54.396;18.590;2022-10-19T10:27:34;13.80;99.90
16728;DHT22;8482;54.396;18.590;2022-10-19T10:30:08;13.80;99.90
16728;DHT22;8482;54.396;18.590;2022-10-19T10:32:47;13.80;99.90
16728;DHT22;8482;54.396;18.590;2022-10-19T10:35:24;13.80;99.90
16728;DHT22;8482;54.396;18.590;2022-10-19T10:38:13;13.80;99.90
16728;DHT22;8482;54.396;18.590;2022-10-19T10:40:55;13.80;99.90
16728;DHT22;8482;54.396;18.590;2022-10-19T10:43:32;13.80;99.90
16728;DHT22;8482;54.396;18.590;2022-10-19T10:46:06;13.80;99.90
16728;DHT22;8482;54.396;18.590;2022-10-19T10:48:41;13.80;99.90
16728;DHT22;8482;54.396;18.590;2022-10-19T10:57:04;13.70;99.90
16728;DHT22;8482;54.396;18.590;2022-10-19T11:02:24;13.80;99.90
16728;DHT22;8482;54.396;18.590;2022-10-19T11:04:54;13.80;99.90
16728;DHT22;8482;54.396;18.590;2022-10-19T11:07:29;13.80;99.80
16728;DHT22;8482;54.396;18.590;2022-10-19T11:10:01;13.80;99.60
16728;DHT22;8482;54.396;18.590;2022-10-19T11:13:09;13.90;99.30
16728;DHT22;8482;54.396;18.590;2022-10-19T11:16:00;13.80;99.10
16728;DHT22;8482;54.396;18.590;2022-10-19T11:18:52;13.90;99.20
16728;DHT22;8482;54.396;18.590;2022-10-19T11:21:28;13.90;99.50
16728;DHT22;8482;54.396;18.590;2022-10-19T11:29:34;13.90;99.00
16728;DHT22;8482;54.396;18.590;2022-10-19T11:40:49;13.90;98.60
16728;DHT22;8482;54.396;18.590;2022-10-19T11:43:33;14.00;98.50
16728;DHT22;8482;54.396;18.590;2022-10-19T11:52:08;14.20;97.60
16728;DHT22;8482;54.396;18.590;2022-10-19T11:55:06;14.20;97.60
16728;DHT22;8482;54.396;18.590;2022-10-19T11:58:21;14.20;98.60
16728;DHT22;8482;54.396;18.590;2022-10-19T12:01:17;14.20;99.70
16728;DHT22;8482;54.396;18.590;2022-10-19T12:09:38;14.00;99.90
16728;DHT22;8482;54.396;18.590;2022-10-19T12:12:22;14.00;99.90
16728;DHT22;8482;54.396;18.590;2022-10-19T12:15:02;14.00;99.90
16728;DHT22;8482;54.396;18.590;2022-10-19T12:17:52;14.00;99.90
16728;DHT22;8482;54.396;18.590;2022-10-19T12:20:41;14.00;99.90
16728;DHT22;8482;54.396;18.590;2022-10-19T12:23:37;14.00;99.90
16728;DHT22;8482;54.396;18.590;2022-10-19T12:26:08;14.00;99.90
16728;DHT22;8482;54.396;18.590;2022-10-19T12:28:42;14.00;99.90
16728;DHT22;8482;54.396;18.590;2022-10-19T12:31:14;14.00;99.90
16728;DHT22;8482;54.396;18.590;2022-10-19T12:36:40;13.90;99.90
16728;DHT22;8482;54.396;18.590;2022-10-19T12:53:38;14.00;97.20
16728;DHT22;8482;54.396;18.590;2022-10-19T13:03:50;13.90;96.80
16728;DHT22;8482;54.396;18.590;2022-10-19T13:06:33;14.00;96.70
16728;DHT22;8482;54.396;18.590;2022-10-19T13:09:06;14.00;96.40
16728;DHT22;8482;54.396;18.590;2022-10-19T13:14:50;14.10;95.70
16728;DHT22;8482;54.396;18.590;2022-10-19T13:17:40;14.10;95.10
16728;DHT22;8482;54.396;18.590;2022-10-19T13:22:51;14.10;93.90
16728;DHT22;8482;54.396;18.590;2022-10-19T13:25:42;14.20;93.60
16728;DHT22;8482;54.396;18.590;2022-10-19T13:38:44;14.20;93.10
16728;DHT22;8482;54.396;18.590;2022-10-19T13:53:41;14.00;96.70
16728;DHT22;8482;54.396;18.590;2022-10-19T13:59:36;13.90;97.70
16728;DHT22;8482;54.396;18.590;2022-10-19T14:11:30;13.50;99.90
16728;DHT22;8482;54.396;18.590;2022-10-19T14:19:24;13.20;99.90
16728;DHT22;8482;54.396;18.590;2022-10-19T14:21:55;13.20;99.90
16728;DHT22;8482;54.396;18.590;2022-10-19T14:24:32;13.20;99.90
16728;DHT22;8482;54.396;18.590;2022-10-19T14:27:04;13.10;99.90
16728;DHT22;8482;54.396;18.590;2022-10-19T14:29:43;13.20;99.90
16728;DHT22;8482;54.396;18.590;2022-10-19T14:32:11;13.10;99.90
16728;DHT22;8482;54.396;18.590;2022-10-19T14:34:43;13.10;99.90
16728;DHT22;8482;54.396;18.590;2022-10-19T14:37:18;13.10;99.90
16728;DHT22;8482;54.396;18.590;2022-10-19T14:42:43;13.10;99.90
16728;DHT22;8482;54.396;18.590;2022-10-19T14:47:52;13.00;99.90
16728;DHT22;8482;54.396;18.590;2022-10-19T14:50:46;13.00;99.90
16728;DHT22;8482;54.396;18.590;2022-10-19T14:53:43;12.90;99.90
16728;DHT22;8482;54.396;18.590;2022-10-19T14:59:27;12.90;99.90
16728;DHT22;8482;54.396;18.590;2022-10-19T15:02:00;12.80;99.90
16728;DHT22;8482;54.396;18.590;2022-10-19T15:04:37;12.80;99.90
16728;DHT22;8482;54.396;18.590;2022-10-19T15:07:23;12.80;99.90
16728;DHT22;8482;54.396;18.590;2022-10-19T15:10:00;12.90;99.90
16728;DHT22;8482;54.396;18.590;2022-10-19T15:12:36;12.80;99.90
16728;DHT22;8482;54.396;18.590;2022-10-19T15:15:13;12.90;99.90
16728;DHT22;8482;54.396;18.590;2022-10-19T15:17:55;12.80;99.90
16728;DHT22;8482;54.396;18.590;2022-10-19T15:22:52;12.70;99.90
16728;DHT22;8482;54.396;18.590;2022-10-19T15:25:30;12.70;99.90
16728;DHT22;8482;54.396;18.590;2022-10-19T15:28:39;12.70;99.90
16728;DHT22;8482;54.396;18.590;2022-10-19T15:31:17;12.70;99.90
16728;DHT22;8482;54.396;18.590;2022-10-19T15:33:58;12.70;99.90
16728;DHT22;8482;54.396;18.590;2022-10-19T15:36:27;12.60;99.90
16728;DHT22;8482;54.396;18.590;2022-10-19T15:39:11;12.60;99.90
16728;DHT22;8482;54.396;18.590;2022-10-19T15:41:45;12.60;99.90
16728;DHT22;8482;54.396;18.590;2022-10-19T15:44:41;12.60;99.90
16728;DHT22;8482;54.396;18.590;2022-10-19T15:52:26;12.50;99.90
16728;DHT22;8482;54.396;18.590;2022-10-19T15:54:57;12.40;99.90
16728;DHT22;8482;54.396;18.590;2022-10-19T15:57:33;12.40;99.90
16728;DHT22;8482;54.396;18.590;2022-10-19T16:00:14;12.30;99.90
16728;DHT22;8482;54.396;18.590;2022-10-19T16:02:42;12.30;99.90
16728;DHT22;8482;54.396;18.590;2022-10-19T16:05:08;12.20;99.90
16728;DHT22;8482;54.396;18.590;2022-10-19T16:07:36;12.20;99.90
16728;DHT22;8482;54.396;18.590;2022-10-19T16:10:05;12.10;99.90
16728;DHT22;8482;54.396;18.590;2022-10-19T16:12:32;12.10;99.90
16728;DHT22;8482;54.396;18.590;2022-10-19T16:14:57;12.10;99.90
16728;DHT22;8482;54.396;18.590;2022-10-19T16:17:23;12.00;99.90
16728;DHT22;8482;54.396;18.590;2022-10-19T16:19:50;12.00;99.90
16728;DHT22;8482;54.396;18.590;2022-10-19T16:22:16;11.90;99.90
16728;DHT22;8482;54.396;18.590;2022-10-19T16:24:42;11.90;99.90
16728;DHT22;8482;54.396;18.590;2022-10-19T16:27:08;11.90;99.90
16728;DHT22;8482;54.396;18.590;2022-10-19T16:29:38;11.90;99.90
16728;DHT22;8482;54.396;18.590;2022-10-19T16:32:05;11.80;99.90
16728;DHT22;8482;54.396;18.590;2022-10-19T16:34:31;11.80;99.90
16728;DHT22;8482;54.396;18.590;2022-10-19T16:36:56;11.80;99.90
16728;DHT22;8482;54.396;18.590;2022-10-19T16:39:22;11.80;99.90
16728;DHT22;8482;54.396;18.590;2022-10-19T16:41:50;11.80;99.90
16728;DHT22;8482;54.396;18.590;2022-10-19T16:44:16;11.80;99.90
16728;DHT22;8482;54.396;18.590;2022-10-19T16:46:42;11.70;99.90
16728;DHT22;8482;54.396;18.590;2022-10-19T16:49:07;11.70;99.90
16728;DHT22;8482;54.396;18.590;2022-10-19T16:51:38;11.70;99.90
16728;DHT22;8482;54.396;18.590;2022-10-19T16:54:09;11.60;99.90
16728;DHT22;8482;54.396;18.590;2022-10-19T16:56:42;11.60;99.90
16728;DHT22;8482;54.396;18.590;2022-10-19T16:59:14;11.60;99.90
16728;DHT22;8482;54.396;18.590;2022-10-19T17:01:43;11.60;99.90
16728;DHT22;8482;54.396;18.590;2022-10-19T17:04:11;11.50;99.90
16728;DHT22;8482;54.396;18.590;2022-10-19T17:06:38;11.50;99.90
16728;DHT22;8482;54.396;18.590;2022-10-19T17:09:05;11.50;99.90
16728;DHT22;8482;54.396;18.590;2022-10-19T17:11:34;11.50;99.90
16728;DHT22;8482;54.396;18.590;2022-10-19T17:14:04;11.40;99.90
16728;DHT22;8482;54.396;18.590;2022-10-19T17:16:34;11.40;99.90
16728;DHT22;8482;54.396;18.590;2022-10-19T17:19:03;11.40;99.90
16728;DHT22;8482;54.396;18.590;2022-10-19T17:21:33;11.40;99.90
16728;DHT22;8482;54.396;18.590;2022-10-19T17:24:04;11.40;99.90
16728;DHT22;8482;54.396;18.590;2022-10-19T17:26:37;11.40;99.90
16728;DHT22;8482;54.396;18.590;2022-10-19T17:29:06;11.40;99.90
16728;DHT22;8482;54.396;18.590;2022-10-19T17:31:34;11.40;99.90
16728;DHT22;8482;54.396;18.590;2022-10-19T17:34:01;11.40;99.90
16728;DHT22;8482;54.396;18.590;2022-10-19T17:36:30;11.40;99.90
16728;DHT22;8482;54.396;18.590;2022-10-19T17:39:02;11.40;99.90
16728;DHT22;8482;54.396;18.590;2022-10-19T17:41:31;11.30;99.90
16728;DHT22;8482;54.396;18.590;2022-10-19T17:43:57;11.40;99.90
16728;DHT22;8482;54.396;18.590;2022-10-19T17:46:26;11.30;99.90
16728;DHT22;8482;54.396;18.590;2022-10-19T17:48:55;11.30;99.90
16728;DHT22;8482;54.396;18.590;2022-10-19T17:51:24;11.40;99.90
16728;DHT22;8482;54.396;18.590;2022-10-19T17:53:57;11.30;99.90
16728;DHT22;8482;54.396;18.590;2022-10-19T17:56:25;11.30;99.90
16728;DHT22;8482;54.396;18.590;2022-10-19T17:58:53;11.30;99.90
16728;DHT22;8482;54.396;18.590;2022-10-19T18:01:21;11.30;99.90
16728;DHT22;8482;54.396;18.590;2022-10-19T18:03:49;11.30;99.90
16728;DHT22;8482;54.396;18.590;2022-10-19T18:06:23;11.20;99.90
16728;DHT22;8482;54.396;18.590;2022-10-19T18:08:53;11.20;99.90
16728;DHT22;8482;54.396;18.590;2022-10-19T18:11:29;11.20;99.90
16728;DHT22;8482;54.396;18.590;2022-10-19T18:13:59;11.10;99.90
16728;DHT22;8482;54.396;18.590;2022-10-19T18:16:31;11.10;99.90
16728;DHT22;8482;54.396;18.590;2022-10-19T18:19:00;11.10;99.90
16728;DHT22;8482;54.396;18.590;2022-10-19T18:21:35;11.10;99.90
16728;DHT22;8482;54.396;18.590;2022-10-19T18:24:06;11.10;99.90
16728;DHT22;8482;54.396;18.590;2022-10-19T18:26:33;11.10;99.90
16728;DHT22;8482;54.396;18.590;2022-10-19T18:29:01;11.10;99.90
16728;DHT22;8482;54.396;18.590;2022-10-19T18:31:38;11.10;99.90
16728;DHT22;8482;54.396;18.590;2022-10-19T18:34:07;11.10;99.90
16728;DHT22;8482;54.396;18.590;2022-10-19T18:36:37;11.10;99.90
16728;DHT22;8482;54.396;18.590;2022-10-19T18:39:04;11.10;99.90
16728;DHT22;8482;54.396;18.590;2022-10-19T18:41:30;11.10;99.90
16728;DHT22;8482;54.396;18.590;2022-10-19T18:43:59;11.10;99.90
16728;DHT22;8482;54.396;18.590;2022-10-19T18:46:28;11.10;99.90
16728;DHT22;8482;54.396;18.590;2022-10-19T18:48:54;11.10;99.90
16728;DHT22;8482;54.396;18.590;2022-10-19T18:51:21;11.10;99.90
16728;DHT22;8482;54.396;18.590;2022-10-19T18:53:49;11.10;99.90
16728;DHT22;8482;54.396;18.590;2022-10-19T18:56:19;11.10;99.90